Time;durP1;ratioP1;P1;durP2;ratioP2;P2;SDS_P1;SDS_P2;PMS_P1;PMS_P2;Temp;Humidity;BMP_temperature;BMP_pressure;BME280_temperature;BME280_humidity;BME280_pressure;Samples;Min_cycle;Max_cycle;Signal;HPM_P1;HPM_P2
2022/07/16 00:01:42;;;;;;;51.08;28.35;;;;;;;;;;1659208;29;22279;-58
2022/07/16 00:02:34;;;;;;;60.70;27.65;;;;;;;;;;1663258;29;21759;-57
2022/07/16 00:03:25;;;;;;;50.50;27.38;;;;;;;;;;1663683;29;21785;-59
2022/07/16 00:04:17;;;;;;;55.88;28.50;;;;;;;;;;1663626;29;21730;-59
2022/07/16 00:05:09;;;;;;;51.85;27.10;;;;;;;;;;1662485;29;21662;-58
2022/07/16 00:06:01;;;;;;;48.67;25.75;;;;;;;;;;1662843;29;22583;-58
2022/07/16 00:06:56;;;;;;;52.30;26.75;;;;;;;;;;1661593;29;22320;-58
2022/07/16 00:07:48;;;;;;;40.28;24.92;;;;;;;;;;1659662;29;21660;-58
2022/07/16 00:08:39;;;;;;;44.83;25.98;;;;;;;;;;1662144;29;21651;-58
2022/07/16 00:09:32;;;;;;;48.08;25.05;;;;;;;;;;1661716;29;22398;-58
2022/07/16 00:10:23;;;;;;;46.28;26.20;;;;;;;;;;1662530;29;21696;-58
2022/07/16 00:11:16;;;;;;;54.65;25.80;;;;;;;;;;1663666;29;21619;-59
2022/07/16 00:12:07;;;;;;;43.13;25.05;;;;;;;;;;1661987;29;21649;-58
2022/07/16 00:13:02;;;;;;;43.60;21.92;;;;;;;;;;1661602;29;22106;-58
2022/07/16 00:13:53;;;;;;;40.60;23.65;;;;;;;;;;1663875;29;21645;-59
2022/07/16 00:14:46;;;;;;;40.97;23.23;;;;;;;;;;1662131;29;21768;-59
2022/07/16 00:15:37;;;;;;;38.78;23.27;;;;;;;;;;1662373;29;21646;-59
2022/07/16 00:16:29;;;;;;;37.35;22.45;;;;;;;;;;1663448;29;21627;-58
2022/07/16 00:17:21;;;;;;;38.90;23.05;;;;;;;;;;1662665;29;21652;-58
2022/07/16 00:19:23;;;;;;;40.33;22.30;;;;;;;;;;1655976;29;21597;-58
2022/07/16 00:20:15;;;;;;;35.67;21.83;;;;;;;;;;1663077;29;21747;-58
2022/07/16 00:21:06;;;;;;;37.22;22.08;;;;;;;;;;1662899;29;21808;-58
2022/07/16 00:22:00;;;;;;;35.30;22.63;;;;;;;;;;1657447;29;21762;-57
2022/07/16 00:22:51;;;;;;;37.50;21.20;;;;;;;;;;1661129;29;21601;-58
2022/07/16 00:23:43;;;;;;;32.70;19.52;;;;;;;;;;1661583;29;21879;-58
2022/07/16 00:24:34;;;;;;;39.88;21.30;;;;;;;;;;1662590;29;21744;-58
2022/07/16 00:25:26;;;;;;;36.03;21.13;;;;;;;;;;1662864;29;21792;-58
2022/07/16 00:26:18;;;;;;;36.92;20.85;;;;;;;;;;1649034;29;22267;-59
2022/07/16 00:27:10;;;;;;;36.58;20.95;;;;;;;;;;1648983;29;21613;-58
2022/07/16 00:28:02;;;;;;;36.22;20.42;;;;;;;;;;1652542;29;22000;-58
2022/07/16 00:28:53;;;;;;;32.40;19.95;;;;;;;;;;1662347;29;21692;-58
2022/07/16 00:29:46;;;;;;;32.25;19.70;;;;;;;;;;1662699;29;22563;-58
2022/07/16 00:30:37;;;;;;;43.97;20.45;;;;;;;;;;1663092;29;22517;-58
2022/07/16 00:31:29;;;;;;;30.90;19.10;;;;;;;;;;1661343;29;22866;-58
2022/07/16 00:32:20;;;;;;;32.20;18.65;;;;;;;;;;1662915;29;21794;-58
2022/07/16 00:33:13;;;;;;;28.15;18.40;;;;;;;;;;1663518;29;21747;-59
2022/07/16 00:34:06;;;;;;;34.33;19.08;;;;;;;;;;1661531;29;21599;-58
2022/07/16 00:34:59;;;;;;;28.38;18.60;;;;;;;;;;1662461;29;21873;-59
2022/07/16 00:35:50;;;;;;;31.58;18.85;;;;;;;;;;1662313;29;22267;-58
2022/07/16 00:36:42;;;;;;;37.80;18.63;;;;;;;;;;1661490;29;21631;-58
2022/07/16 00:37:38;;;;;;;30.70;18.13;;;;;;;;;;1662454;29;22531;-58
2022/07/16 00:38:30;;;;;;;34.05;18.77;;;;;;;;;;1662980;29;21601;-58
2022/07/16 00:39:22;;;;;;;40.00;17.58;;;;;;;;;;1661328;29;21936;-58
2022/07/16 00:40:14;;;;;;;26.00;16.27;;;;;;;;;;1664666;29;21571;-59
2022/07/16 00:41:05;;;;;;;26.77;17.27;;;;;;;;;;1666061;29;21919;-58
2022/07/16 00:41:58;;;;;;;30.52;17.52;;;;;;;;;;1661840;29;21730;-58
2022/07/16 00:42:49;;;;;;;31.88;17.63;;;;;;;;;;1661655;29;22426;-58
2022/07/16 00:43:48;;;;;;;33.58;16.33;;;;;;;;;;1662256;29;21600;-59
2022/07/16 00:44:39;;;;;;;26.38;16.20;;;;;;;;;;1657222;29;21647;-58
2022/07/16 00:45:31;;;;;;;23.27;14.45;;;;;;;;;;1661611;29;21893;-57
2022/07/16 00:46:23;;;;;;;28.05;15.27;;;;;;;;;;1659828;29;21688;-59
2022/07/16 00:47:15;;;;;;;33.88;15.65;;;;;;;;;;1655370;29;22233;-58
2022/07/16 00:48:07;;;;;;;20.73;14.95;;;;;;;;;;1654765;29;21790;-58
2022/07/16 00:48:59;;;;;;;24.00;14.57;;;;;;;;;;1660852;29;21618;-58
2022/07/16 00:49:51;;;;;;;24.65;15.07;;;;;;;;;;1656091;29;21629;-58
2022/07/16 00:50:43;;;;;;;23.73;15.10;;;;;;;;;;1662239;29;22520;-59
2022/07/16 00:51:36;;;;;;;20.80;15.00;;;;;;;;;;1663673;29;21724;-58
2022/07/16 00:52:29;;;;;;;25.80;14.68;;;;;;;;;;1662036;29;21589;-58
2022/07/16 00:53:22;;;;;;;22.77;15.30;;;;;;;;;;1662045;29;21744;-58
2022/07/16 00:54:14;;;;;;;22.52;14.55;;;;;;;;;;1662027;29;22001;-58
2022/07/16 00:55:07;;;;;;;23.17;13.32;;;;;;;;;;1662197;29;21643;-58
2022/07/16 00:56:00;;;;;;;19.73;14.70;;;;;;;;;;1663538;29;21611;-59
2022/07/16 00:56:51;;;;;;;22.95;13.50;;;;;;;;;;1662204;29;21834;-58
2022/07/16 00:57:43;;;;;;;18.73;14.15;;;;;;;;;;1662700;29;21687;-58
2022/07/16 00:58:37;;;;;;;24.05;13.57;;;;;;;;;;1663221;29;21729;-58
2022/07/16 00:59:28;;;;;;;25.13;14.18;;;;;;;;;;1661591;29;21606;-58
2022/07/16 01:00:21;;;;;;;17.80;13.15;;;;;;;;;;1661385;29;21931;-58
2022/07/16 01:01:13;;;;;;;22.33;13.85;;;;;;;;;;1662334;29;21646;-58
2022/07/16 01:02:06;;;;;;;18.25;12.77;;;;;;;;;;1662389;29;21682;-58
2022/07/16 01:02:58;;;;;;;18.08;13.27;;;;;;;;;;1662231;29;21837;-58
2022/07/16 01:03:52;;;;;;;19.52;13.13;;;;;;;;;;1660106;29;22411;-58
2022/07/16 01:04:43;;;;;;;14.90;12.32;;;;;;;;;;1655905;29;21709;-58
2022/07/16 01:05:35;;;;;;;16.73;12.95;;;;;;;;;;1661383;29;22320;-58
2022/07/16 01:06:29;;;;;;;16.02;12.40;;;;;;;;;;1661219;29;21723;-57
2022/07/16 01:07:22;;;;;;;21.48;12.32;;;;;;;;;;1656928;29;22685;-58
2022/07/16 01:08:13;;;;;;;14.30;11.30;;;;;;;;;;1661749;29;22466;-58
2022/07/16 01:09:08;;;;;;;20.17;12.30;;;;;;;;;;1662131;29;21847;-58
2022/07/16 01:10:04;;;;;;;19.60;12.05;;;;;;;;;;1655726;29;21979;-58
2022/07/16 01:10:56;;;;;;;18.83;11.98;;;;;;;;;;1662018;29;22230;-58
2022/07/16 01:11:48;;;;;;;14.25;11.52;;;;;;;;;;1660683;29;21792;-57
2022/07/16 01:12:40;;;;;;;19.15;10.45;;;;;;;;;;1663252;29;21592;-58
2022/07/16 01:13:32;;;;;;;16.15;10.82;;;;;;;;;;1661321;29;22050;-59
2022/07/16 01:14:25;;;;;;;17.23;11.30;;;;;;;;;;1662604;29;21882;-58
2022/07/16 01:15:18;;;;;;;17.02;11.40;;;;;;;;;;1662308;29;21608;-59
2022/07/16 01:16:10;;;;;;;17.80;11.35;;;;;;;;;;1661518;29;22602;-58
2022/07/16 01:17:02;;;;;;;20.00;11.30;;;;;;;;;;1663378;29;21857;-60
2022/07/16 01:17:54;;;;;;;19.13;10.65;;;;;;;;;;1662927;29;21634;-57
2022/07/16 01:18:47;;;;;;;14.38;10.82;;;;;;;;;;1661768;29;21618;-58
2022/07/16 01:19:39;;;;;;;15.75;11.02;;;;;;;;;;1662000;29;21628;-58
2022/07/16 01:20:31;;;;;;;15.25;10.63;;;;;;;;;;1661825;29;21611;-58
2022/07/16 01:21:22;;;;;;;15.00;10.43;;;;;;;;;;1662621;29;21661;-58
2022/07/16 01:22:19;;;;;;;11.82;10.55;;;;;;;;;;1662375;29;21811;-58
2022/07/16 01:23:18;;;;;;;15.30;10.75;;;;;;;;;;1662353;29;22591;-58
2022/07/16 01:24:10;;;;;;;11.48;9.50;;;;;;;;;;1661162;29;21610;-58
2022/07/16 01:25:01;;;;;;;12.88;9.98;;;;;;;;;;1661992;29;21657;-59
2022/07/16 01:25:54;;;;;;;16.88;10.90;;;;;;;;;;1663328;29;21649;-58
2022/07/16 01:26:45;;;;;;;13.90;9.85;;;;;;;;;;1664499;29;22008;-58
2022/07/16 01:27:38;;;;;;;13.73;9.43;;;;;;;;;;1662349;29;22391;-58
2022/07/16 01:28:29;;;;;;;16.45;10.02;;;;;;;;;;1665216;29;21889;-58
2022/07/16 01:29:21;;;;;;;13.60;9.85;;;;;;;;;;1663339;29;21611;-58
2022/07/16 01:30:13;;;;;;;13.27;10.05;;;;;;;;;;1661586;29;21615;-58
2022/07/16 01:31:06;;;;;;;13.80;9.13;;;;;;;;;;1664216;29;22259;-58
2022/07/16 01:31:57;;;;;;;11.43;9.63;;;;;;;;;;1662141;29;22277;-58
2022/07/16 01:32:50;;;;;;;10.00;9.05;;;;;;;;;;1662695;29;21598;-58
2022/07/16 01:33:41;;;;;;;11.15;9.63;;;;;;;;;;1661786;29;22451;-58
2022/07/16 01:34:34;;;;;;;15.82;9.35;;;;;;;;;;1662117;29;22054;-59
2022/07/16 01:35:26;;;;;;;10.13;8.15;;;;;;;;;;1661519;29;21689;-58
2022/07/16 01:36:18;;;;;;;12.30;8.60;;;;;;;;;;1661714;29;22421;-58
2022/07/16 01:37:10;;;;;;;9.82;8.50;;;;;;;;;;1663958;29;22386;-58
2022/07/16 01:38:03;;;;;;;12.32;8.43;;;;;;;;;;1661701;29;21619;-59
2022/07/16 01:38:55;;;;;;;12.38;8.50;;;;;;;;;;1663034;29;21691;-57
2022/07/16 01:39:47;;;;;;;10.52;8.32;;;;;;;;;;1662219;29;22589;-58
2022/07/16 01:40:39;;;;;;;12.77;9.20;;;;;;;;;;1662015;29;21691;-58
2022/07/16 01:41:30;;;;;;;9.65;8.73;;;;;;;;;;1663448;29;21614;-59
2022/07/16 01:42:22;;;;;;;9.98;8.70;;;;;;;;;;1661789;29;22709;-58
2022/07/16 01:43:15;;;;;;;10.60;7.80;;;;;;;;;;1661580;29;22413;-58
2022/07/16 01:44:07;;;;;;;8.85;7.93;;;;;;;;;;1663803;29;22250;-58
2022/07/16 01:45:00;;;;;;;8.13;7.38;;;;;;;;;;1663205;29;22762;-58
2022/07/16 01:45:53;;;;;;;9.00;8.13;;;;;;;;;;1663974;29;21583;-59
2022/07/16 01:46:44;;;;;;;10.38;7.85;;;;;;;;;;1661445;29;22400;-58
2022/07/16 01:47:36;;;;;;;10.93;7.72;;;;;;;;;;1663190;29;21556;-58
2022/07/16 01:48:29;;;;;;;9.90;7.50;;;;;;;;;;1662669;29;21843;-58
2022/07/16 01:49:23;;;;;;;9.13;7.32;;;;;;;;;;1661014;29;22075;-59
2022/07/16 01:50:14;;;;;;;13.80;7.50;;;;;;;;;;1661303;29;21610;-59
2022/07/16 01:51:06;;;;;;;9.68;7.97;;;;;;;;;;1661957;29;21758;-58
2022/07/16 01:52:03;;;;;;;8.52;7.65;;;;;;;;;;1661228;29;22658;-58
2022/07/16 01:52:55;;;;;;;8.00;6.70;;;;;;;;;;1659303;29;21782;-58
2022/07/16 01:53:46;;;;;;;9.18;7.22;;;;;;;;;;1660186;29;21608;-58
2022/07/16 01:54:45;;;;;;;9.30;6.90;;;;;;;;;;1663828;29;21661;-58
2022/07/16 01:55:37;;;;;;;10.85;7.00;;;;;;;;;;1659591;29;21609;-58
2022/07/16 01:56:29;;;;;;;9.52;7.00;;;;;;;;;;1662831;29;22265;-58
2022/07/16 01:57:22;;;;;;;12.10;7.35;;;;;;;;;;1663062;29;21651;-57
2022/07/16 01:58:15;;;;;;;10.05;6.85;;;;;;;;;;1661289;29;21902;-57
2022/07/16 01:59:06;;;;;;;8.38;6.03;;;;;;;;;;1662075;29;21651;-58
2022/07/16 01:59:59;;;;;;;9.82;6.68;;;;;;;;;;1662066;29;22238;-59
2022/07/16 02:00:50;;;;;;;7.53;6.60;;;;;;;;;;1661201;29;21661;-58
2022/07/16 02:01:42;;;;;;;7.70;6.72;;;;;;;;;;1662982;29;21706;-58
2022/07/16 02:02:33;;;;;;;12.30;6.18;;;;;;;;;;1663156;29;21607;-60
2022/07/16 02:03:26;;;;;;;8.15;6.10;;;;;;;;;;1662392;29;22284;-58
2022/07/16 02:04:17;;;;;;;7.18;6.20;;;;;;;;;;1661924;29;22534;-58
2022/07/16 02:05:09;;;;;;;7.25;5.85;;;;;;;;;;1662843;29;21600;-58
2022/07/16 02:06:01;;;;;;;13.55;6.30;;;;;;;;;;1662302;29;21759;-58
2022/07/16 02:06:53;;;;;;;6.07;5.57;;;;;;;;;;1661836;29;22448;-57
2022/07/16 02:07:44;;;;;;;6.20;5.60;;;;;;;;;;1661862;29;22920;-58
2022/07/16 02:08:37;;;;;;;6.35;5.78;;;;;;;;;;1661671;29;21595;-58
2022/07/16 02:09:28;;;;;;;7.22;5.68;;;;;;;;;;1661371;29;21785;-58
2022/07/16 02:10:22;;;;;;;11.88;6.35;;;;;;;;;;1663048;29;21557;-58
2022/07/16 02:11:13;;;;;;;6.53;5.93;;;;;;;;;;1662453;29;22022;-58
2022/07/16 02:12:06;;;;;;;5.80;5.30;;;;;;;;;;1661758;29;21640;-59
2022/07/16 02:12:58;;;;;;;8.23;5.28;;;;;;;;;;1661117;29;21764;-58
2022/07/16 02:13:50;;;;;;;6.35;5.75;;;;;;;;;;1661422;29;21638;-58
2022/07/16 02:14:41;;;;;;;6.03;5.53;;;;;;;;;;1661676;29;21718;-58
2022/07/16 02:15:34;;;;;;;6.03;5.43;;;;;;;;;;1663061;29;21940;-58
2022/07/16 02:16:25;;;;;;;9.32;5.07;;;;;;;;;;1661795;29;21762;-57
2022/07/16 02:17:18;;;;;;;5.45;4.95;;;;;;;;;;1662777;29;22253;-57
2022/07/16 02:18:09;;;;;;;5.75;5.25;;;;;;;;;;1664189;29;22175;-58
2022/07/16 02:19:01;;;;;;;5.95;5.35;;;;;;;;;;1662663;29;21549;-57
2022/07/16 02:19:52;;;;;;;6.07;5.25;;;;;;;;;;1660569;29;22289;-58
2022/07/16 02:20:45;;;;;;;5.50;4.85;;;;;;;;;;1662142;29;21630;-59
2022/07/16 02:21:36;;;;;;;6.65;5.20;;;;;;;;;;1661562;29;21833;-58
2022/07/16 02:22:29;;;;;;;8.15;5.00;;;;;;;;;;1661270;29;21657;-58
2022/07/16 02:23:20;;;;;;;5.70;4.90;;;;;;;;;;1660948;29;21739;-58
2022/07/16 02:24:12;;;;;;;5.10;4.70;;;;;;;;;;1659586;29;21788;-58
2022/07/16 02:25:07;;;;;;;5.60;5.13;;;;;;;;;;1663912;29;21685;-58
2022/07/16 02:26:00;;;;;;;5.40;4.90;;;;;;;;;;1657675;29;21622;-58
2022/07/16 02:26:51;;;;;;;5.57;4.65;;;;;;;;;;1662943;29;21628;-58
2022/07/16 02:28:50;;;;;;;5.57;5.05;;;;;;;;;;1654454;29;21723;-58
2022/07/16 02:29:41;;;;;;;5.20;4.72;;;;;;;;;;1654917;29;21789;-59
2022/07/16 02:30:34;;;;;;;9.38;4.88;;;;;;;;;;1659074;29;22548;-59
2022/07/16 02:31:26;;;;;;;5.07;4.55;;;;;;;;;;1663294;29;21659;-58
2022/07/16 02:32:18;;;;;;;6.95;4.45;;;;;;;;;;1664244;29;21794;-58
2022/07/16 02:33:12;;;;;;;5.15;4.75;;;;;;;;;;1661825;29;22458;-58
2022/07/16 02:34:04;;;;;;;4.65;4.15;;;;;;;;;;1663876;29;21593;-58
2022/07/16 02:34:55;;;;;;;4.35;3.95;;;;;;;;;;1663803;29;22653;-57
2022/07/16 02:35:48;;;;;;;4.43;4.03;;;;;;;;;;1662533;29;21695;-58
2022/07/16 02:36:39;;;;;;;5.60;4.35;;;;;;;;;;1663068;29;21707;-58
2022/07/16 02:37:32;;;;;;;4.80;4.40;;;;;;;;;;1663946;29;21657;-58
2022/07/16 02:38:23;;;;;;;7.38;4.45;;;;;;;;;;1660481;29;22733;-58
2022/07/16 02:39:15;;;;;;;4.78;4.32;;;;;;;;;;1663776;29;21809;-58
2022/07/16 02:40:08;;;;;;;4.65;4.20;;;;;;;;;;1663975;29;21656;-58
2022/07/16 02:41:02;;;;;;;5.43;4.30;;;;;;;;;;1662469;29;22497;-58
2022/07/16 02:41:53;;;;;;;4.70;4.30;;;;;;;;;;1662858;29;21780;-58
2022/07/16 02:42:46;;;;;;;4.53;4.05;;;;;;;;;;1662367;29;21607;-58
2022/07/16 02:43:37;;;;;;;4.72;4.28;;;;;;;;;;1662777;29;22240;-58
2022/07/16 02:44:29;;;;;;;4.20;3.80;;;;;;;;;;1663636;29;21636;-59
2022/07/16 02:45:21;;;;;;;3.90;3.60;;;;;;;;;;1662693;29;22070;-58
2022/07/16 02:46:13;;;;;;;4.82;3.35;;;;;;;;;;1662479;29;22504;-58
2022/07/16 02:47:04;;;;;;;8.40;3.80;;;;;;;;;;1662767;29;21678;-58
2022/07/16 02:47:56;;;;;;;6.18;4.18;;;;;;;;;;1664591;29;21937;-59
2022/07/16 02:48:48;;;;;;;4.97;3.90;;;;;;;;;;1655354;29;22552;-58
2022/07/16 02:49:40;;;;;;;3.65;3.35;;;;;;;;;;1655567;29;22046;-58
2022/07/16 02:50:31;;;;;;;3.83;3.47;;;;;;;;;;1662428;29;21561;-58
2022/07/16 02:51:23;;;;;;;3.58;3.28;;;;;;;;;;1662287;29;22398;-58
2022/07/16 02:52:15;;;;;;;4.43;3.70;;;;;;;;;;1662268;29;21699;-58
2022/07/16 02:53:07;;;;;;;3.42;3.13;;;;;;;;;;1663404;29;21661;-58
2022/07/16 02:53:59;;;;;;;4.20;3.17;;;;;;;;;;1663780;29;21675;-57
2022/07/16 02:54:51;;;;;;;3.38;3.08;;;;;;;;;;1662231;29;22064;-58
2022/07/16 02:55:42;;;;;;;5.97;3.78;;;;;;;;;;1663089;29;21608;-58
2022/07/16 02:56:36;;;;;;;4.05;3.28;;;;;;;;;;1662719;29;21614;-58
2022/07/16 02:57:27;;;;;;;3.30;3.00;;;;;;;;;;1661927;29;21700;-59
2022/07/16 02:58:20;;;;;;;4.05;3.38;;;;;;;;;;1662612;29;22409;-58
2022/07/16 02:59:11;;;;;;;7.20;3.63;;;;;;;;;;1662916;29;21596;-59
2022/07/16 03:00:05;;;;;;;3.17;2.88;;;;;;;;;;1662752;29;21653;-58
2022/07/16 03:00:57;;;;;;;5.68;3.00;;;;;;;;;;1663157;29;21684;-58
2022/07/16 03:01:49;;;;;;;3.80;3.45;;;;;;;;;;1664970;29;21723;-57
2022/07/16 03:02:41;;;;;;;4.32;2.78;;;;;;;;;;1664140;29;21646;-58
2022/07/16 03:03:33;;;;;;;3.60;3.30;;;;;;;;;;1662865;29;21970;-59
2022/07/16 03:04:24;;;;;;;3.42;2.80;;;;;;;;;;1662648;29;21621;-58
2022/07/16 03:05:17;;;;;;;4.43;3.33;;;;;;;;;;1664144;29;22597;-58
2022/07/16 03:06:08;;;;;;;4.05;2.90;;;;;;;;;;1662380;29;21668;-59
2022/07/16 03:07:00;;;;;;;5.85;3.05;;;;;;;;;;1662866;29;21617;-58
2022/07/16 03:07:52;;;;;;;3.45;3.15;;;;;;;;;;1663655;29;21623;-58
2022/07/16 03:08:46;;;;;;;6.05;2.50;;;;;;;;;;1663427;29;22129;-58
2022/07/16 03:09:38;;;;;;;3.13;2.83;;;;;;;;;;1662828;29;22612;-57
2022/07/16 03:10:30;;;;;;;3.33;3.13;;;;;;;;;;1663778;29;21678;-59
2022/07/16 03:11:21;;;;;;;3.10;2.33;;;;;;;;;;1662006;29;21955;-58
2022/07/16 03:12:14;;;;;;;3.33;3.03;;;;;;;;;;1663915;29;21614;-58
2022/07/16 03:13:07;;;;;;;2.90;2.67;;;;;;;;;;1661912;29;21765;-58
2022/07/16 03:13:58;;;;;;;2.97;2.50;;;;;;;;;;1662129;29;22515;-58
2022/07/16 03:14:51;;;;;;;3.05;2.75;;;;;;;;;;1662418;29;21649;-58
2022/07/16 03:15:42;;;;;;;7.50;3.33;;;;;;;;;;1662718;29;21645;-59
2022/07/16 03:16:34;;;;;;;3.65;2.60;;;;;;;;;;1664125;29;21927;-58
2022/07/16 03:17:25;;;;;;;2.67;2.35;;;;;;;;;;1662171;29;22639;-58
2022/07/16 03:18:18;;;;;;;2.88;2.58;;;;;;;;;;1664033;29;21631;-57
2022/07/16 03:19:09;;;;;;;2.78;2.58;;;;;;;;;;1658337;29;21577;-59
2022/07/16 03:20:01;;;;;;;4.43;2.28;;;;;;;;;;1663788;29;21979;-59
2022/07/16 03:20:53;;;;;;;4.07;2.28;;;;;;;;;;1665284;29;22354;-58
2022/07/16 03:21:45;;;;;;;2.42;2.22;;;;;;;;;;1662259;29;21936;-58
2022/07/16 03:22:36;;;;;;;3.20;2.83;;;;;;;;;;1660628;29;21606;-57
2022/07/16 03:23:28;;;;;;;3.78;3.00;;;;;;;;;;1661667;29;21603;-59
2022/07/16 03:24:20;;;;;;;3.10;2.88;;;;;;;;;;1661865;29;21619;-58
2022/07/16 03:25:12;;;;;;;2.55;2.35;;;;;;;;;;1662640;29;22162;-58
2022/07/16 03:26:04;;;;;;;2.45;2.25;;;;;;;;;;1663793;29;21857;-58
2022/07/16 03:26:56;;;;;;;2.63;2.38;;;;;;;;;;1664079;29;22064;-59
2022/07/16 03:27:49;;;;;;;2.40;2.20;;;;;;;;;;1661961;29;22439;-59
2022/07/16 03:28:41;;;;;;;2.15;2.00;;;;;;;;;;1662612;29;22513;-58
2022/07/16 03:29:32;;;;;;;2.63;2.42;;;;;;;;;;1662730;29;22143;-58
2022/07/16 03:30:23;;;;;;;2.55;2.35;;;;;;;;;;1663110;29;22662;-58
2022/07/16 03:31:17;;;;;;;2.45;1.98;;;;;;;;;;1662894;29;22398;-58
2022/07/16 03:32:08;;;;;;;2.50;2.30;;;;;;;;;;1664220;29;21628;-58
2022/07/16 03:33:00;;;;;;;2.28;2.08;;;;;;;;;;1661194;29;21710;-59
2022/07/16 03:33:51;;;;;;;2.00;1.90;;;;;;;;;;1662702;29;22026;-58
2022/07/16 03:34:44;;;;;;;2.70;1.80;;;;;;;;;;1663870;29;21765;-58
2022/07/16 03:35:35;;;;;;;2.00;1.83;;;;;;;;;;1662093;29;21641;-59
2022/07/16 03:36:28;;;;;;;3.60;1.95;;;;;;;;;;1663016;29;21632;-58
2022/07/16 03:37:19;;;;;;;2.35;1.70;;;;;;;;;;1657483;29;21656;-59
2022/07/16 03:39:21;;;;;;;2.00;1.90;;;;;;;;;;1662702;29;22675;-58
2022/07/16 03:40:12;;;;;;;4.10;2.13;;;;;;;;;;1662628;29;21608;-59
2022/07/16 03:41:04;;;;;;;2.50;1.90;;;;;;;;;;1662274;29;21665;-58
2022/07/16 03:41:56;;;;;;;3.47;1.90;;;;;;;;;;1662705;29;21716;-58
2022/07/16 03:42:49;;;;;;;2.13;1.92;;;;;;;;;;1661850;29;21620;-59
2022/07/16 03:43:40;;;;;;;2.22;2.08;;;;;;;;;;1662840;29;22075;-58
2022/07/16 03:44:33;;;;;;;1.90;1.70;;;;;;;;;;1662684;29;21625;-57
2022/07/16 03:45:24;;;;;;;1.70;1.60;;;;;;;;;;1663765;29;21577;-59
2022/07/16 03:46:16;;;;;;;2.22;1.65;;;;;;;;;;1662201;29;22394;-58
2022/07/16 03:47:08;;;;;;;1.50;1.40;;;;;;;;;;1663772;29;22037;-58
2022/07/16 03:48:00;;;;;;;1.80;1.70;;;;;;;;;;1663667;29;21704;-58
2022/07/16 03:48:51;;;;;;;1.65;1.48;;;;;;;;;;1659464;29;21640;-57
2022/07/16 03:49:43;;;;;;;3.30;1.75;;;;;;;;;;1662583;29;21586;-59
2022/07/16 03:50:35;;;;;;;2.40;1.85;;;;;;;;;;1662712;29;21642;-58
2022/07/16 03:51:27;;;;;;;2.55;1.50;;;;;;;;;;1655474;29;21987;-58
2022/07/16 03:52:18;;;;;;;1.75;1.63;;;;;;;;;;1655015;29;21664;-58
2022/07/16 03:53:11;;;;;;;3.05;1.60;;;;;;;;;;1659397;29;21716;-59
2022/07/16 03:54:02;;;;;;;1.50;1.40;;;;;;;;;;1661491;29;22549;-58
2022/07/16 03:54:55;;;;;;;2.53;1.73;;;;;;;;;;1662213;29;22234;-58
2022/07/16 03:55:46;;;;;;;11.35;1.60;;;;;;;;;;1656034;29;21608;-59
2022/07/16 03:56:38;;;;;;;1.70;1.60;;;;;;;;;;1655552;29;22264;-58
2022/07/16 03:57:30;;;;;;;5.82;1.48;;;;;;;;;;1660364;29;21649;-58
2022/07/16 03:58:22;;;;;;;2.30;1.55;;;;;;;;;;1663422;29;21615;-59
2022/07/16 03:59:14;;;;;;;2.42;2.13;;;;;;;;;;1662561;29;22622;-58
2022/07/16 04:00:08;;;;;;;3.75;1.30;;;;;;;;;;1662403;29;22064;-58
2022/07/16 04:01:00;;;;;;;1.40;1.30;;;;;;;;;;1663374;29;22698;-58
2022/07/16 04:01:51;;;;;;;3.63;1.58;;;;;;;;;;1662632;29;21599;-58
2022/07/16 04:02:44;;;;;;;1.90;1.60;;;;;;;;;;1663196;29;22023;-57
2022/07/16 04:03:36;;;;;;;2.03;1.50;;;;;;;;;;1663318;29;21638;-58
2022/07/16 04:04:29;;;;;;;3.28;1.98;;;;;;;;;;1662228;29;22647;-58
2022/07/16 04:05:20;;;;;;;1.67;1.58;;;;;;;;;;1662388;29;22867;-58
2022/07/16 04:06:11;;;;;;;2.47;1.30;;;;;;;;;;1663295;29;21593;-58
2022/07/16 04:07:04;;;;;;;1.98;1.63;;;;;;;;;;1662792;29;21704;-59
2022/07/16 04:07:55;;;;;;;2.42;1.83;;;;;;;;;;1662284;29;21635;-58
2022/07/16 04:08:47;;;;;;;1.70;1.60;;;;;;;;;;1662142;29;21618;-58
2022/07/16 04:09:38;;;;;;;4.35;1.40;;;;;;;;;;1663183;29;21804;-59
2022/07/16 04:10:31;;;;;;;1.92;1.13;;;;;;;;;;1663089;29;21641;-58
2022/07/16 04:11:22;;;;;;;1.48;1.35;;;;;;;;;;1661875;29;21635;-59
2022/07/16 04:12:14;;;;;;;2.28;1.35;;;;;;;;;;1659701;29;22232;-58
2022/07/16 04:13:06;;;;;;;6.03;1.33;;;;;;;;;;1662902;29;21685;-59
2022/07/16 04:13:59;;;;;;;2.50;1.38;;;;;;;;;;1654614;29;22679;-58
2022/07/16 04:14:51;;;;;;;1.25;1.15;;;;;;;;;;1655356;29;21609;-59
2022/07/16 04:15:44;;;;;;;2.15;1.25;;;;;;;;;;1660190;29;22545;-58
2022/07/16 04:16:36;;;;;;;3.47;1.45;;;;;;;;;;1661833;29;22846;-58
2022/07/16 04:17:28;;;;;;;1.40;1.30;;;;;;;;;;1662844;29;21875;-58
2022/07/16 04:18:20;;;;;;;3.05;1.73;;;;;;;;;;1662179;29;21764;-58
2022/07/16 04:19:12;;;;;;;1.52;1.10;;;;;;;;;;1661806;29;21634;-58
2022/07/16 04:20:05;;;;;;;1.20;1.10;;;;;;;;;;1663536;29;21680;-58
2022/07/16 04:20:58;;;;;;;1.27;1.10;;;;;;;;;;1662443;29;21656;-58
2022/07/16 04:21:49;;;;;;;1.45;1.13;;;;;;;;;;1663065;29;22275;-58
2022/07/16 04:22:41;;;;;;;5.18;1.50;;;;;;;;;;1661981;29;21837;-59
2022/07/16 04:23:33;;;;;;;1.30;1.10;;;;;;;;;;1661579;29;22892;-59
2022/07/16 04:24:25;;;;;;;1.17;1.08;;;;;;;;;;1660517;29;22066;-58
2022/07/16 04:25:16;;;;;;;1.10;1.00;;;;;;;;;;1662898;29;21629;-59
2022/07/16 04:26:09;;;;;;;3.53;1.05;;;;;;;;;;1662582;29;21622;-58
2022/07/16 04:27:00;;;;;;;21.92;1.63;;;;;;;;;;1662396;29;21856;-58
2022/07/16 04:27:52;;;;;;;14.40;1.40;;;;;;;;;;1661599;29;21783;-59
2022/07/16 04:28:43;;;;;;;7.35;1.25;;;;;;;;;;1665197;29;22442;-58
2022/07/16 04:29:37;;;;;;;4.20;1.27;;;;;;;;;;1662462;29;22455;-59
2022/07/16 04:30:28;;;;;;;1.58;1.33;;;;;;;;;;1662088;29;21873;-58
2022/07/16 04:31:21;;;;;;;5.13;1.30;;;;;;;;;;1661600;29;21701;-58
2022/07/16 04:32:12;;;;;;;11.77;1.00;;;;;;;;;;1662174;29;21635;-58
2022/07/16 04:33:04;;;;;;;4.38;1.13;;;;;;;;;;1661729;29;22324;-59
2022/07/16 04:33:55;;;;;;;1.30;1.20;;;;;;;;;;1662800;29;22352;-58
2022/07/16 04:35:07;;;;;;;1.35;1.25;;;;;;;;;;1662520;29;22040;-58
2022/07/16 04:35:59;;;;;;;1.20;1.10;;;;;;;;;;1662493;29;22124;-58
2022/07/16 04:36:51;;;;;;;5.05;1.27;;;;;;;;;;1662246;29;21724;-58
2022/07/16 04:38:50;;;;;;;1.70;0.90;;;;;;;;;;1652045;29;21971;-58
2022/07/16 04:39:42;;;;;;;1.40;1.15;;;;;;;;;;1663381;29;22469;-59
2022/07/16 04:40:34;;;;;;;6.07;1.10;;;;;;;;;;1662354;29;21749;-59
2022/07/16 04:41:27;;;;;;;6.75;1.10;;;;;;;;;;1661927;29;22165;-58
2022/07/16 04:42:18;;;;;;;5.10;1.10;;;;;;;;;;1661973;29;21667;-58
2022/07/16 04:43:10;;;;;;;1.05;1.05;;;;;;;;;;1657266;29;21626;-58
2022/07/16 04:44:02;;;;;;;1.20;1.10;;;;;;;;;;1655328;29;21974;-59
2022/07/16 04:44:55;;;;;;;15.27;1.52;;;;;;;;;;1659260;29;22530;-58
2022/07/16 04:45:46;;;;;;;1.60;1.08;;;;;;;;;;1663811;29;21685;-59
2022/07/16 04:46:39;;;;;;;2.35;1.02;;;;;;;;;;1662331;29;21603;-57
2022/07/16 04:47:30;;;;;;;2.25;1.05;;;;;;;;;;1664253;29;22646;-58
2022/07/16 04:48:22;;;;;;;1.17;0.80;;;;;;;;;;1663157;29;21643;-58
2022/07/16 04:49:14;;;;;;;1.40;0.80;;;;;;;;;;1663680;29;21855;-59
2022/07/16 04:50:08;;;;;;;1.70;1.00;;;;;;;;;;1661817;29;21614;-58
2022/07/16 04:51:00;;;;;;;1.17;1.02;;;;;;;;;;1662501;29;22496;-57
2022/07/16 04:51:51;;;;;;;3.33;0.85;;;;;;;;;;1662284;29;21643;-58
2022/07/16 04:52:44;;;;;;;0.88;0.88;;;;;;;;;;1661302;29;22439;-59
2022/07/16 04:53:35;;;;;;;0.90;0.85;;;;;;;;;;1661834;29;21956;-58
2022/07/16 04:54:27;;;;;;;4.22;1.10;;;;;;;;;;1662343;29;21619;-59
2022/07/16 04:55:19;;;;;;;0.73;0.73;;;;;;;;;;1661577;29;21983;-59
2022/07/16 04:56:29;;;;;;;5.18;0.70;;;;;;;;;;1663393;29;22660;-58
2022/07/16 04:57:21;;;;;;;0.63;0.52;;;;;;;;;;1663255;29;21612;-58
2022/07/16 04:58:14;;;;;;;1.35;1.00;;;;;;;;;;1661398;29;21696;-58
2022/07/16 04:59:05;;;;;;;1.65;0.90;;;;;;;;;;1662149;29;21603;-58
2022/07/16 04:59:59;;;;;;;1.42;0.80;;;;;;;;;;1655309;29;22041;-58
2022/07/16 05:00:50;;;;;;;1.27;0.98;;;;;;;;;;1655007;29;21697;-59
2022/07/16 05:01:42;;;;;;;3.50;0.98;;;;;;;;;;1660842;29;22511;-59
2022/07/16 05:03:53;;;;;;;0.82;0.77;;;;;;;;;;1648319;29;21889;-58
2022/07/16 05:04:44;;;;;;;5.03;1.05;;;;;;;;;;1654164;29;22529;-59
2022/07/16 05:05:39;;;;;;;0.73;0.70;;;;;;;;;;1662132;29;22064;-59
2022/07/16 05:06:30;;;;;;;1.25;1.00;;;;;;;;;;1661745;29;21616;-58
2022/07/16 05:07:22;;;;;;;1.58;1.00;;;;;;;;;;1661959;29;22616;-58
2022/07/16 05:08:13;;;;;;;1.10;0.68;;;;;;;;;;1662191;29;21808;-59
2022/07/16 05:09:06;;;;;;;0.75;0.73;;;;;;;;;;1662996;29;21855;-58
2022/07/16 05:09:57;;;;;;;2.00;0.90;;;;;;;;;;1663271;29;21668;-58
2022/07/16 05:10:48;;;;;;;2.08;0.88;;;;;;;;;;1664445;29;21727;-58
2022/07/16 05:11:40;;;;;;;0.90;0.68;;;;;;;;;;1661575;29;22138;-59
2022/07/16 05:12:32;;;;;;;0.77;0.73;;;;;;;;;;1663335;29;21577;-57
2022/07/16 05:13:24;;;;;;;1.08;0.80;;;;;;;;;;1661124;29;22218;-58
2022/07/16 05:14:15;;;;;;;0.80;0.80;;;;;;;;;;1661833;29;21622;-59
2022/07/16 05:15:10;;;;;;;0.85;0.80;;;;;;;;;;1662277;29;21886;-58
2022/07/16 05:16:02;;;;;;;1.20;0.80;;;;;;;;;;1662287;29;21680;-58
2022/07/16 05:16:56;;;;;;;0.85;0.70;;;;;;;;;;1661809;29;21568;-59
2022/07/16 05:17:47;;;;;;;1.50;0.70;;;;;;;;;;1663724;29;21713;-58